Enon Valley, Pennsylvania
Current Conditions -  °F | °C
As of 1:35 AM on Monday 24 Nov 2014 (Local Time) from KBTP Reporting Station
Overcast Overcast  
Wind Chill: 52°   Ceiling: 6000
Heat Index: 52°   Visibility: 10mi
Dew Point: 48°   Wind: 12mph
Humidity: 88%   Direction: 120°ESE
Pressure: 29.45"   Gusts: 20mph
Location:  40.85°N, 80.46°W
Report Text: KBTP 240635Z AUTO 12010G17KT 10SM BKN060 OVC090 11/09 A2945 RMK AO1 P0002
Loading
Personal Weather Stations






























Interactive Weather Map New forecast layout! Learn more

10-Day Weather Forecast

Advertisements
Track Severe Weather on mobile